createdAt,value
2019-02-21T00:01:37.698Z,89.51
2019-02-21T00:04:11.076Z,89.43
2019-02-21T00:06:44.350Z,89.57
2019-02-21T00:09:17.656Z,89.08
2019-02-21T00:11:50.942Z,89.42
2019-02-21T00:14:24.235Z,89.79
2019-02-21T00:16:59.084Z,89.95
2019-02-21T00:19:32.376Z,89.11
2019-02-21T00:22:05.664Z,88.87
2019-02-21T00:24:40.117Z,89.05
2019-02-21T00:27:13.377Z,88.83
2019-02-21T00:29:46.673Z,89.48
2019-02-21T00:32:22.625Z,89.87
2019-02-21T00:34:55.930Z,89.28
2019-02-21T00:37:29.198Z,89.28
2019-02-21T00:40:02.496Z,89.03
2019-02-21T00:42:35.802Z,88.68
2019-02-21T00:45:09.170Z,88.58
2019-02-21T00:47:42.457Z,88.62
2019-02-21T00:50:15.762Z,88.68
2019-02-21T00:52:49.049Z,88.96
2019-02-21T00:55:22.358Z,88.75
2019-02-21T00:57:55.646Z,88.61
2019-02-21T01:00:29.016Z,88.81
2019-02-21T01:03:03.940Z,89.11
2019-02-21T01:05:37.231Z,89.00
2019-02-21T01:08:10.567Z,89.16
2019-02-21T01:10:43.870Z,88.97
2019-02-21T01:13:18.187Z,89.49
2019-02-21T01:15:51.488Z,89.71
2019-02-21T01:18:24.765Z,89.22
2019-02-21T01:20:59.810Z,88.78
2019-02-21T01:23:49.186Z,89.02
2019-02-21T01:26:22.496Z,89.10
2019-02-21T01:28:57.305Z,88.79
2019-02-21T01:31:32.115Z,89.23
2019-02-21T01:34:05.477Z,89.35
2019-02-21T01:36:41.588Z,90.67
2019-02-21T01:39:14.868Z,90.42
2019-02-21T01:41:48.144Z,90.12
2019-02-21T01:47:02.441Z,89.75
2019-02-21T01:49:37.097Z,89.61
2019-02-21T01:52:14.082Z,89.55
2019-02-21T01:54:48.540Z,89.15
2019-02-21T01:57:30.611Z,88.68
2019-02-21T02:00:05.734Z,88.84
2019-02-21T02:02:41.351Z,89.10
2019-02-21T02:05:14.618Z,89.26
2019-02-21T02:07:47.915Z,87.73
2019-02-21T02:10:21.188Z,88.12
2019-02-21T02:12:54.474Z,87.61
2019-02-21T02:15:29.310Z,87.68
2019-02-21T02:18:02.595Z,87.97
2019-02-21T02:20:35.893Z,87.99
2019-02-21T02:23:09.163Z,88.07
2019-02-21T02:25:42.453Z,87.85
2019-02-21T02:28:15.724Z,87.63
2019-02-21T02:30:48.850Z,87.36
2019-02-21T02:33:22.130Z,87.29
2019-02-21T02:35:55.419Z,87.03
2019-02-21T02:38:28.700Z,87.02
2019-02-21T02:41:02.002Z,86.91
2019-02-21T02:43:35.280Z,86.98
2019-02-21T02:46:08.574Z,87.24
2019-02-21T02:48:41.859Z,87.41
2019-02-21T02:51:15.176Z,87.21
2019-02-21T02:53:48.486Z,87.16
2019-02-21T02:56:21.794Z,86.78
2019-02-21T02:58:55.081Z,86.90
2019-02-21T03:01:34.720Z,87.06
2019-02-21T03:04:03.483Z,87.65
2019-02-21T03:06:36.787Z,86.69
2019-02-21T03:09:11.398Z,86.28
2019-02-21T03:11:44.690Z,86.42
2019-02-21T03:14:18.034Z,85.78
2019-02-21T03:16:51.319Z,86.77
2019-02-21T03:19:24.601Z,86.63
2019-02-21T03:21:57.893Z,85.19
2019-02-21T03:24:31.169Z,85.54
2019-02-21T03:27:04.473Z,85.30
2019-02-21T03:29:39.289Z,85.26
2019-02-21T03:32:13.151Z,84.94
2019-02-21T03:34:46.451Z,85.51
2019-02-21T03:37:19.753Z,85.38
2019-02-21T03:39:53.019Z,85.08
2019-02-21T03:42:26.313Z,85.15
2019-02-21T03:45:00.365Z,84.98
2019-02-21T03:47:33.639Z,84.99
2019-02-21T03:50:09.424Z,85.08
2019-02-21T03:52:42.713Z,84.96
2019-02-21T03:55:16.654Z,84.90
2019-02-21T03:57:50.045Z,85.18
2019-02-21T04:00:23.882Z,85.11
2019-02-21T04:02:57.257Z,84.92
2019-02-21T04:05:30.554Z,84.89
2019-02-21T04:08:03.917Z,84.63
2019-02-21T04:10:38.557Z,84.54
2019-02-21T04:13:14.925Z,84.81
2019-02-21T04:15:46.866Z,84.79
2019-02-21T04:18:20.713Z,84.54
2019-02-21T04:20:55.032Z,84.16
2019-02-21T04:23:28.339Z,84.63
2019-02-21T04:26:01.630Z,85.12
2019-02-21T04:28:34.940Z,85.71
2019-02-21T04:31:08.232Z,85.75
2019-02-21T04:33:41.549Z,85.98
2019-02-21T04:36:14.811Z,85.73
2019-02-21T04:38:49.775Z,86.71
2019-02-21T04:41:23.060Z,86.23
2019-02-21T04:43:56.824Z,85.95
2019-02-21T04:46:30.108Z,85.71
2019-02-21T04:49:03.466Z,85.91
2019-02-21T04:51:36.767Z,86.01
2019-02-21T04:54:10.074Z,86.39
2019-02-21T04:56:43.362Z,86.19
2019-02-21T04:59:16.662Z,85.93
2019-02-21T05:01:49.938Z,85.19
2019-02-21T05:04:23.242Z,85.14
2019-02-21T05:06:56.511Z,85.77
2019-02-21T05:09:29.805Z,85.90
2019-02-21T05:12:03.096Z,86.79
2019-02-21T05:14:37.918Z,87.01
2019-02-21T05:17:11.204Z,87.05
2019-02-21T05:19:44.497Z,87.15
2019-02-21T05:22:17.785Z,87.33
2019-02-21T05:24:51.078Z,87.24
2019-02-21T05:27:25.988Z,86.98
2019-02-21T05:29:59.295Z,86.99
2019-02-21T05:32:41.079Z,87.13
2019-02-21T05:35:19.121Z,87.02
2019-02-21T05:38:10.699Z,86.65
2019-02-21T05:40:57.604Z,86.58
2019-02-21T05:43:37.166Z,86.18
2019-02-21T05:46:20.896Z,86.22
2019-02-21T05:49:07.589Z,86.28
2019-02-21T05:51:45.232Z,86.34
2019-02-21T05:54:26.321Z,86.08
2019-02-21T05:57:03.845Z,86.13
2019-02-21T05:59:54.911Z,86.30
2019-02-21T06:02:32.657Z,86.67
2019-02-21T06:05:13.314Z,86.91
2019-02-21T06:08:04.647Z,86.61
2019-02-21T06:10:39.594Z,86.85
2019-02-21T06:13:20.321Z,87.74
2019-02-21T06:16:11.437Z,88.19
2019-02-21T06:18:58.522Z,88.27
2019-02-21T06:21:33.476Z,89.26
2019-02-21T06:24:08.433Z,89.29
2019-02-21T06:26:43.348Z,89.43
2019-02-21T06:29:18.280Z,89.38
2019-02-21T06:31:52.087Z,88.83
2019-02-21T06:34:25.358Z,88.70
2019-02-21T06:37:00.327Z,88.38
2019-02-21T06:39:33.596Z,88.36
2019-02-21T06:42:06.888Z,88.37
2019-02-21T06:44:40.213Z,88.15
2019-02-21T06:47:13.483Z,87.67
2019-02-21T06:49:46.798Z,86.93
2019-02-21T06:52:20.087Z,86.72
2019-02-21T06:54:53.399Z,86.58
2019-02-21T06:57:26.678Z,86.23
2019-02-21T07:00:00.797Z,85.83
2019-02-21T07:02:34.137Z,85.25
2019-02-21T07:05:07.494Z,85.14
2019-02-21T07:07:40.861Z,85.01
2019-02-21T07:10:14.244Z,84.83
2019-02-21T07:12:47.495Z,84.77
2019-02-21T07:15:20.790Z,84.79
2019-02-21T07:17:54.090Z,84.67
2019-02-21T07:20:27.392Z,84.63
2019-02-21T07:23:02.309Z,84.45
2019-02-21T07:25:37.258Z,84.57
2019-02-21T07:28:12.482Z,84.72
2019-02-21T07:30:45.855Z,84.59
2019-02-21T07:33:27.823Z,84.29
2019-02-21T07:35:54.159Z,83.64
2019-02-21T07:38:27.460Z,83.84
2019-02-21T07:41:00.922Z,83.86
2019-02-21T07:43:34.311Z,83.89
2019-02-21T07:46:07.631Z,83.30
2019-02-21T07:48:40.965Z,83.21
2019-02-21T07:51:14.280Z,83.25
2019-02-21T07:53:47.553Z,82.94
2019-02-21T07:56:20.959Z,82.78
2019-02-21T07:58:54.225Z,82.76
2019-02-21T08:01:27.525Z,82.41
2019-02-21T08:04:00.810Z,82.17
2019-02-21T08:06:34.133Z,82.12
2019-02-21T08:09:08.975Z,81.92
2019-02-21T08:11:42.289Z,81.71
2019-02-21T08:14:16.278Z,81.63
2019-02-21T08:16:49.646Z,81.31
2019-02-21T08:19:22.929Z,81.64
2019-02-21T08:21:56.730Z,81.63
2019-02-21T08:24:30.026Z,82.09
2019-02-21T08:27:03.328Z,82.08
2019-02-21T08:29:36.593Z,82.10
2019-02-21T08:32:11.365Z,82.12
2019-02-21T08:34:48.255Z,82.37
2019-02-21T08:37:21.630Z,81.97
2019-02-21T08:39:54.907Z,81.36
2019-02-21T08:42:28.199Z,80.67
2019-02-21T08:45:01.513Z,80.12
2019-02-21T08:47:34.805Z,80.27
2019-02-21T08:50:08.113Z,79.32
2019-02-21T08:52:41.424Z,79.45
2019-02-21T08:55:14.807Z,78.75
2019-02-21T08:57:48.104Z,79.10
2019-02-21T09:00:21.384Z,78.56
2019-02-21T09:02:56.284Z,78.17
2019-02-21T09:05:29.553Z,77.98
2019-02-21T09:08:04.443Z,77.96
2019-02-21T09:10:37.722Z,77.94
2019-02-21T09:13:11.054Z,77.48
2019-02-21T09:15:46.423Z,77.28
2019-02-21T09:18:19.432Z,77.64
2019-02-21T09:20:52.723Z,77.26
2019-02-21T09:23:26.026Z,77.27
2019-02-21T09:25:59.331Z,76.89
2019-02-21T09:28:32.631Z,76.87
2019-02-21T09:31:05.898Z,76.62
2019-02-21T09:33:39.199Z,76.69
2019-02-21T09:36:12.556Z,76.67
2019-02-21T09:38:45.854Z,76.12
2019-02-21T09:41:19.158Z,75.71
2019-02-21T09:43:52.477Z,75.75
2019-02-21T09:46:25.766Z,74.59
2019-02-21T09:48:59.129Z,74.13
2019-02-21T09:51:36.529Z,74.26
2019-02-21T09:54:09.078Z,73.81
2019-02-21T09:56:52.298Z,72.35
2019-02-21T09:59:17.420Z,72.35
2019-02-21T10:01:50.691Z,72.00
2019-02-21T10:04:31.926Z,71.77
2019-02-21T10:06:59.026Z,71.11
2019-02-21T10:09:32.359Z,72.57
2019-02-21T10:12:05.721Z,73.50
2019-02-21T10:14:39.030Z,73.62
2019-02-21T10:17:12.319Z,73.02
2019-02-21T10:19:45.632Z,73.14
2019-02-21T10:22:18.946Z,74.08
2019-02-21T10:24:52.288Z,73.78
2019-02-21T10:27:25.653Z,73.99
2019-02-21T10:29:58.932Z,73.69
2019-02-21T10:32:32.238Z,73.57
2019-02-21T10:35:06.586Z,73.65
2019-02-21T10:37:39.858Z,73.52
2019-02-21T10:40:15.038Z,73.09
2019-02-21T10:42:48.597Z,72.83
2019-02-21T10:45:22.818Z,72.00
2019-02-21T10:47:56.108Z,70.80
2019-02-21T10:50:29.395Z,69.74
2019-02-21T10:53:02.708Z,67.92
2019-02-21T10:55:35.954Z,66.21
2019-02-21T10:58:09.251Z,64.50
2019-02-21T11:00:42.668Z,65.54
2019-02-21T11:03:15.980Z,65.11
2019-02-21T11:05:49.271Z,67.52
2019-02-21T11:08:22.560Z,67.93
2019-02-21T11:10:55.833Z,68.34
2019-02-21T11:13:29.137Z,69.03
2019-02-21T11:16:02.408Z,69.71
2019-02-21T11:18:35.703Z,69.61
2019-02-21T11:21:08.998Z,69.04
2019-02-21T11:23:42.345Z,69.16
2019-02-21T11:26:15.634Z,69.63
2019-02-21T11:28:48.949Z,69.24
2019-02-21T11:31:22.225Z,70.09
2019-02-21T11:33:55.507Z,70.33
2019-02-21T11:36:28.782Z,69.48
2019-02-21T11:39:02.108Z,68.67
2019-02-21T11:41:35.389Z,66.94
2019-02-21T11:44:08.667Z,66.91
2019-02-21T11:46:41.939Z,66.33
2019-02-21T11:49:15.246Z,64.87
2019-02-21T11:51:48.525Z,63.51
2019-02-21T11:54:26.969Z,63.12
2019-02-21T11:56:56.853Z,60.48
2019-02-21T11:59:30.147Z,59.92
2019-02-21T12:02:03.445Z,60.56
2019-02-21T12:04:36.764Z,63.83
2019-02-21T12:07:10.042Z,64.78
2019-02-21T12:09:43.336Z,64.75
2019-02-21T12:12:16.673Z,65.83
2019-02-21T12:14:49.990Z,65.47
2019-02-21T12:17:23.274Z,65.17
2019-02-21T12:19:56.616Z,64.70
2019-02-21T12:22:29.899Z,64.49
2019-02-21T12:25:03.195Z,65.05
2019-02-21T12:27:36.468Z,65.54
2019-02-21T12:30:17.980Z,65.34
2019-02-21T12:32:51.256Z,65.25
2019-02-21T12:35:29.535Z,64.74
2019-02-21T12:37:59.637Z,64.98
2019-02-21T12:40:32.935Z,65.71
2019-02-21T12:43:06.219Z,66.06
2019-02-21T12:45:39.568Z,66.10
2019-02-21T12:48:12.853Z,64.45
2019-02-21T12:50:46.146Z,62.78
2019-02-21T12:53:19.435Z,59.02
2019-02-21T12:55:52.852Z,59.46
2019-02-21T12:58:26.133Z,60.07
2019-02-21T13:00:59.699Z,58.39
2019-02-21T13:03:32.982Z,58.16
2019-02-21T13:06:06.325Z,58.35
2019-02-21T13:08:39.743Z,60.73
2019-02-21T13:11:13.050Z,61.23
2019-02-21T13:13:46.331Z,61.91
2019-02-21T13:16:19.626Z,63.01
2019-02-21T13:18:53.324Z,62.90
2019-02-21T13:21:26.633Z,62.90
2019-02-21T13:23:59.953Z,61.94
2019-02-21T13:26:33.258Z,61.68
2019-02-21T13:29:06.549Z,61.38
2019-02-21T13:31:39.868Z,60.34
2019-02-21T13:34:13.159Z,57.71
2019-02-21T13:36:46.561Z,55.98
2019-02-21T13:39:20.039Z,55.98
2019-02-21T13:41:53.390Z,58.23
2019-02-21T13:44:26.693Z,57.83
2019-02-21T13:46:59.957Z,58.98
2019-02-21T13:49:34.799Z,58.72
2019-02-21T13:52:08.114Z,60.01
2019-02-21T13:54:41.411Z,61.70
2019-02-21T13:57:14.708Z,61.70
2019-02-21T13:59:48.003Z,60.72
2019-02-21T14:02:21.320Z,60.72
2019-02-21T14:04:54.649Z,61.28
2019-02-21T14:07:27.981Z,60.44
2019-02-21T14:10:01.289Z,60.79
2019-02-21T14:12:34.585Z,58.94
2019-02-21T14:15:11.345Z,57.12
2019-02-21T14:17:46.549Z,54.73
2019-02-21T14:20:19.671Z,53.88
2019-02-21T14:22:52.978Z,53.88
2019-02-21T14:25:28.446Z,52.07
2019-02-21T14:28:01.795Z,53.66
2019-02-21T14:30:35.194Z,53.12
2019-02-21T14:33:08.496Z,54.43
2019-02-21T14:35:41.882Z,51.74
2019-02-21T14:38:15.175Z,48.93
2019-02-21T14:40:48.485Z,46.14
2019-02-21T14:43:21.787Z,49.25
2019-02-21T14:45:55.101Z,51.26
2019-02-21T14:48:28.413Z,52.92
2019-02-21T14:51:01.715Z,52.57
2019-02-21T14:53:35.028Z,50.86
2019-02-21T14:56:08.682Z,52.03
2019-02-21T14:58:41.949Z,49.03
2019-02-21T15:01:15.273Z,48.00
2019-02-21T15:03:48.534Z,49.11
2019-02-21T15:06:26.972Z,46.77
2019-02-21T15:08:58.565Z,48.36
2019-02-21T15:11:31.892Z,48.65
2019-02-21T15:14:05.259Z,49.01
2019-02-21T15:16:38.553Z,49.06
2019-02-21T15:19:11.838Z,48.51
2019-02-21T15:21:45.161Z,50.58
2019-02-21T15:24:20.095Z,49.63
2019-02-21T15:26:53.450Z,51.06
2019-02-21T15:29:26.759Z,51.39
2019-02-21T15:32:10.268Z,51.85
2019-02-21T15:34:35.092Z,51.96
2019-02-21T15:37:08.389Z,51.98
2019-02-21T15:39:42.970Z,51.18
2019-02-21T15:42:16.399Z,52.43
2019-02-21T15:44:49.692Z,55.94
2019-02-21T15:47:25.684Z,58.57
2019-02-21T15:49:58.966Z,60.48
2019-02-21T15:52:32.279Z,61.91
2019-02-21T15:55:12.413Z,62.22
2019-02-21T15:57:44.036Z,63.00
2019-02-21T16:00:19.064Z,63.83
2019-02-21T16:02:52.455Z,62.71
2019-02-21T16:05:25.857Z,62.61
2019-02-21T16:07:59.156Z,62.81
2019-02-21T16:10:32.456Z,62.96
2019-02-21T16:13:05.947Z,63.36
2019-02-21T16:15:39.463Z,63.67
2019-02-21T16:18:14.021Z,64.16
2019-02-21T16:20:47.557Z,64.05
2019-02-21T16:23:20.851Z,64.53
2019-02-21T16:25:54.179Z,64.41
2019-02-21T16:28:27.479Z,64.90
2019-02-21T16:31:00.907Z,65.77
2019-02-21T16:33:34.335Z,65.86
2019-02-21T16:36:07.670Z,65.85
2019-02-21T16:38:40.985Z,66.48
2019-02-21T16:41:14.299Z,67.17
2019-02-21T16:43:47.644Z,67.28
2019-02-21T16:46:21.100Z,67.12
2019-02-21T16:48:54.415Z,67.70
2019-02-21T16:51:29.250Z,67.92
2019-02-21T16:54:02.567Z,67.99
2019-02-21T16:56:35.871Z,68.13
2019-02-21T16:59:09.212Z,68.43
2019-02-21T17:01:44.044Z,68.61
2019-02-21T17:04:17.357Z,68.46
2019-02-21T17:06:50.664Z,69.10
2019-02-21T17:09:23.979Z,68.77
2019-02-21T17:11:58.057Z,69.14
2019-02-21T17:14:31.353Z,69.35
2019-02-21T17:17:05.542Z,69.91
2019-02-21T17:19:38.961Z,70.19
2019-02-21T17:22:12.309Z,70.71
2019-02-21T17:24:45.646Z,71.06
2019-02-21T17:27:19.038Z,70.29
2019-02-21T17:29:52.367Z,70.09
2019-02-21T17:32:25.652Z,70.01
2019-02-21T17:34:58.975Z,69.93
2019-02-21T17:37:32.304Z,70.13
2019-02-21T17:40:08.714Z,70.46
2019-02-21T17:42:42.024Z,70.81
2019-02-21T17:45:17.025Z,70.72
2019-02-21T17:47:50.395Z,72.14
2019-02-21T17:50:23.711Z,73.04
2019-02-21T17:52:57.102Z,71.98
2019-02-21T17:55:30.474Z,73.16
2019-02-21T17:58:03.760Z,73.26
2019-02-21T18:00:38.764Z,74.90
2019-02-21T18:03:12.111Z,74.46
2019-02-21T18:05:45.449Z,74.02
2019-02-21T18:08:18.763Z,75.10
2019-02-21T18:10:52.100Z,76.65
2019-02-21T18:13:25.392Z,75.42
2019-02-21T18:15:58.682Z,75.62
2019-02-21T18:18:31.990Z,74.15
2019-02-21T18:21:05.300Z,75.07
2019-02-21T18:23:38.607Z,76.08
2019-02-21T18:26:16.348Z,78.33
2019-02-21T18:28:49.599Z,79.75
2019-02-21T18:31:24.541Z,80.96
2019-02-21T18:33:57.910Z,80.45
2019-02-21T18:36:31.175Z,81.34
2019-02-21T18:39:05.803Z,79.11
2019-02-21T18:41:39.669Z,78.85
2019-02-21T18:44:12.981Z,78.92
2019-02-21T18:46:46.287Z,80.15
2019-02-21T18:49:19.671Z,80.47
2019-02-21T18:51:52.977Z,82.16
2019-02-21T18:54:26.321Z,82.80
2019-02-21T18:56:59.624Z,83.14
2019-02-21T18:59:32.957Z,82.87
2019-02-21T19:02:06.329Z,83.89
2019-02-21T19:04:39.627Z,84.88
2019-02-21T19:07:12.943Z,84.53
2019-02-21T19:09:46.739Z,84.63
2019-02-21T19:12:20.153Z,84.22
2019-02-21T19:14:53.470Z,84.20
2019-02-21T19:17:26.841Z,83.67
2019-02-21T19:20:00.297Z,84.00
2019-02-21T19:22:33.536Z,84.29
2019-02-21T19:25:09.080Z,83.14
2019-02-21T19:27:42.466Z,83.12
2019-02-21T19:30:31.628Z,84.15
2019-02-21T19:33:05.025Z,83.83
2019-02-21T19:35:38.385Z,84.42
2019-02-21T19:38:11.681Z,84.96
2019-02-21T19:40:45.009Z,85.71
2019-02-21T19:43:18.371Z,84.93
2019-02-21T19:45:51.774Z,84.84
2019-02-21T19:48:25.110Z,85.56
2019-02-21T19:50:58.429Z,85.42
2019-02-21T19:53:31.714Z,85.60
2019-02-21T19:56:05.116Z,85.65
2019-02-21T19:58:38.395Z,86.54
2019-02-21T20:01:11.806Z,85.72
2019-02-21T20:03:45.085Z,85.92
2019-02-21T20:06:19.525Z,86.34
2019-02-21T20:08:52.787Z,85.88
2019-02-21T20:11:26.247Z,86.30
2019-02-21T20:13:59.635Z,86.89
2019-02-21T20:16:32.997Z,86.91
2019-02-21T20:19:06.312Z,87.13
2019-02-21T20:21:41.215Z,87.63
2019-02-21T20:24:14.589Z,86.79
2019-02-21T20:26:48.863Z,86.17
2019-02-21T20:29:22.237Z,86.72
2019-02-21T20:31:55.554Z,87.64
2019-02-21T20:34:28.867Z,87.55
2019-02-21T20:37:02.256Z,87.82
2019-02-21T20:39:37.058Z,87.72
2019-02-21T20:42:10.425Z,88.25
2019-02-21T20:44:43.719Z,87.62
2019-02-21T20:47:17.095Z,85.26
2019-02-21T20:49:50.476Z,84.14
2019-02-21T20:52:23.760Z,84.87
2019-02-21T20:54:57.161Z,86.04
2019-02-21T20:57:30.494Z,86.26
2019-02-21T21:00:05.510Z,86.82
2019-02-21T21:02:38.869Z,85.95
2019-02-21T21:05:12.187Z,86.26
2019-02-21T21:07:45.457Z,86.80
2019-02-21T21:10:19.054Z,86.09
2019-02-21T21:12:52.385Z,86.61
2019-02-21T21:15:25.760Z,86.11
2019-02-21T21:17:59.064Z,86.02
2019-02-21T21:20:34.409Z,86.12
2019-02-21T21:23:07.687Z,84.75
2019-02-21T21:25:40.991Z,86.88
2019-02-21T21:28:14.285Z,86.68
2019-02-21T21:30:47.683Z,87.12
2019-02-21T21:33:21.104Z,87.10
2019-02-21T21:35:54.428Z,87.54
2019-02-21T21:38:27.723Z,87.63
2019-02-21T21:41:01.103Z,88.14
2019-02-21T21:43:34.391Z,87.76
2019-02-21T21:46:07.712Z,87.35
2019-02-21T21:48:40.992Z,87.65
2019-02-21T21:51:14.300Z,87.53
2019-02-21T21:53:47.612Z,87.87
2019-02-21T21:56:21.711Z,87.83
2019-02-21T21:58:55.042Z,87.90
2019-02-21T22:01:28.357Z,87.60
2019-02-21T22:04:01.645Z,87.08
2019-02-21T22:06:34.945Z,87.58
2019-02-21T22:09:08.222Z,87.67
2019-02-21T22:11:41.615Z,88.60
2019-02-21T22:14:14.913Z,88.06
2019-02-21T22:16:48.265Z,88.33
2019-02-21T22:19:21.574Z,88.62
2019-02-21T22:21:54.869Z,87.78
2019-02-21T22:24:28.192Z,87.26
2019-02-21T22:27:01.622Z,86.29
2019-02-21T22:29:34.923Z,86.78
2019-02-21T22:32:08.215Z,86.26
2019-02-21T22:34:41.499Z,86.79
2019-02-21T22:37:14.814Z,86.50
2019-02-21T22:39:48.114Z,86.33
2019-02-21T22:42:21.393Z,86.75
2019-02-21T22:44:54.696Z,87.02
2019-02-21T22:47:27.970Z,86.94
2019-02-21T22:50:01.260Z,87.13
2019-02-21T22:52:34.551Z,87.32
2019-02-21T22:55:10.104Z,87.58
2019-02-21T22:57:43.643Z,87.45
2019-02-21T23:00:36.700Z,87.47
2019-02-21T23:03:11.443Z,87.68
2019-02-21T23:05:57.175Z,87.76
2019-02-21T23:08:42.739Z,87.89
2019-02-21T23:11:16.105Z,87.99
2019-02-21T23:13:49.784Z,88.03
2019-02-21T23:16:23.069Z,88.51
2019-02-21T23:18:56.370Z,88.53
2019-02-21T23:21:29.681Z,88.65
2019-02-21T23:24:03.060Z,88.74
2019-02-21T23:26:36.341Z,88.83
2019-02-21T23:29:09.689Z,88.57
2019-02-21T23:31:42.991Z,88.53
2019-02-21T23:34:17.968Z,88.59
2019-02-21T23:36:51.273Z,88.90
2019-02-21T23:39:24.539Z,88.97
2019-02-21T23:41:57.849Z,88.80
2019-02-21T23:44:31.118Z,88.81
2019-02-21T23:47:04.431Z,88.71
2019-02-21T23:49:37.736Z,88.42
2019-02-21T23:52:11.060Z,88.38
2019-02-21T23:54:44.331Z,88.26
2019-02-21T23:57:17.628Z,87.80
2019-02-21T23:59:50.906Z,88.14
